Time;durP1;ratioP1;P1;durP2;ratioP2;P2;SDS_P1;SDS_P2;PMS_P1;PMS_P2;Temp;Humidity;BMP_temperature;BMP_pressure;BME280_temperature;BME280_humidity;BME280_pressure;Samples;Min_cycle;Max_cycle;Signal;HPM_P1;HPM_P2
2022/09/10 00:01:23;;;;;;;9.45;5.90;;;20.60;99.90;;;;;;4788351;29;20504;-94
2022/09/10 00:03:52;;;;;;;8.90;4.88;;;20.60;99.90;;;;;;4788619;29;20044;-93
2022/09/10 00:06:23;;;;;;;9.80;5.28;;;20.60;99.90;;;;;;4789268;29;20059;-92
2022/09/10 00:08:51;;;;;;;9.70;5.28;;;20.50;99.90;;;;;;4766403;29;20425;-91
2022/09/10 00:11:19;;;;;;;8.18;5.40;;;20.50;99.90;;;;;;4771251;30;20055;-90
2022/09/10 00:13:48;;;;;;;8.23;5.18;;;20.60;99.90;;;;;;4787079;29;20055;-90
2022/09/10 00:16:17;;;;;;;10.98;5.40;;;20.60;99.90;;;;;;4784020;30;20085;-90
2022/09/10 00:18:46;;;;;;;12.48;6.88;;;20.50;99.90;;;;;;4752284;30;20080;-89
2022/09/10 00:21:19;;;;;;;11.38;6.28;;;20.50;99.90;;;;;;4767007;30;20083;-90
2022/09/10 00:23:47;;;;;;;11.38;6.07;;;20.50;99.90;;;;;;4749967;30;20051;-90
2022/09/10 00:26:20;;;;;;;10.35;6.75;;;20.50;99.90;;;;;;4771649;30;20055;-90
2022/09/10 00:28:49;;;;;;;10.00;5.85;;;20.50;99.90;;;;;;4755917;30;20725;-90
2022/09/10 00:31:18;;;;;;;8.55;5.93;;;20.50;99.90;;;;;;4756486;30;20557;-90
2022/09/10 00:33:45;;;;;;;10.32;6.15;;;20.40;99.90;;;;;;4771310;30;20059;-90
2022/09/10 00:36:16;;;;;;;9.43;6.25;;;20.50;99.90;;;;;;4768357;30;20043;-90
2022/09/10 00:38:43;;;;;;;9.50;6.03;;;20.40;99.90;;;;;;4750329;30;20105;-90
2022/09/10 00:41:12;;;;;;;9.13;5.88;;;20.40;99.90;;;;;;4769723;30;20056;-90
2022/09/10 00:43:53;;;;;;;9.70;6.18;;;20.40;99.90;;;;;;4757730;30;20082;-90
2022/09/10 00:46:47;;;;;;;10.70;6.47;;;20.40;99.90;;;;;;4772309;30;20063;-89
2022/09/10 00:49:24;;;;;;;10.38;6.20;;;20.40;99.90;;;;;;4769569;30;20052;-90
2022/09/10 00:51:53;;;;;;;10.88;6.53;;;20.40;99.90;;;;;;4764312;30;20051;-91
2022/09/10 00:54:23;;;;;;;9.95;6.63;;;20.50;99.90;;;;;;4768180;30;20043;-90
2022/09/10 00:56:53;;;;;;;11.05;7.05;;;20.40;99.90;;;;;;4761841;30;20054;-91
2022/09/10 00:59:25;;;;;;;12.23;7.13;;;20.40;99.90;;;;;;4756592;30;20051;-90
2022/09/10 01:01:54;;;;;;;9.30;6.27;;;20.40;99.90;;;;;;4756509;30;20501;-89
2022/09/10 01:04:22;;;;;;;9.75;6.18;;;20.40;99.90;;;;;;4753693;30;21193;-89
2022/09/10 01:06:50;;;;;;;11.63;6.45;;;20.40;99.90;;;;;;4755920;30;20128;-90
2022/09/10 01:09:20;;;;;;;11.40;6.95;;;20.40;99.90;;;;;;4759126;30;20047;-89
2022/09/10 01:11:59;;;;;;;11.13;6.40;;;20.40;99.90;;;;;;4764052;30;20437;-89
2022/09/10 01:14:47;;;;;;;9.55;6.13;;;20.40;99.90;;;;;;4752021;30;20474;-89
2022/09/10 01:17:40;;;;;;;10.13;6.50;;;20.40;99.90;;;;;;4768492;29;20055;-89
2022/09/10 01:20:29;;;;;;;11.18;6.95;;;20.40;99.90;;;;;;4760322;30;20151;-89
2022/09/10 01:23:54;;;;;;;11.05;7.00;;;20.40;99.90;;;;;;4754875;30;20058;-90
2022/09/10 01:26:24;;;;;;;11.68;6.78;;;20.30;99.90;;;;;;4692332;30;20500;-89
2022/09/10 01:29:04;;;;;;;12.07;6.82;;;20.30;99.90;;;;;;4714780;30;20498;-90
2022/09/10 01:31:59;;;;;;;11.30;6.82;;;20.30;99.90;;;;;;4738139;30;20055;-90
2022/09/10 01:34:41;;;;;;;13.23;7.05;;;20.30;99.90;;;;;;4773665;30;20494;-89
2022/09/10 01:37:20;;;;;;;14.13;7.47;;;20.30;99.90;;;;;;4759867;30;20055;-90
2022/09/10 01:39:49;;;;;;;13.02;7.60;;;20.30;99.90;;;;;;4767572;30;20055;-89
2022/09/10 01:42:17;;;;;;;12.93;7.22;;;20.20;99.90;;;;;;4777712;30;20051;-90
2022/09/10 01:44:50;;;;;;;11.38;7.40;;;20.20;99.90;;;;;;4770207;30;20526;-90
2022/09/10 01:47:53;;;;;;;11.63;7.30;;;20.20;99.90;;;;;;4768709;30;20079;-90
2022/09/10 01:50:37;;;;;;;17.55;7.25;;;20.20;99.90;;;;;;4788354;30;20075;-90
2022/09/10 01:53:27;;;;;;;12.27;6.82;;;20.20;99.90;;;;;;4767969;30;20083;-90
2022/09/10 01:56:12;;;;;;;14.10;7.68;;;20.10;99.90;;;;;;4755102;30;20048;-90
2022/09/10 01:58:42;;;;;;;12.50;7.00;;;20.10;99.90;;;;;;4774501;30;20051;-90
2022/09/10 02:01:31;;;;;;;9.73;6.55;;;20.10;99.90;;;;;;4760388;30;20055;-89
2022/09/10 02:04:04;;;;;;;12.15;7.75;;;20.10;99.90;;;;;;4759455;30;20079;-89
2022/09/10 02:06:37;;;;;;;12.00;6.93;;;20.00;99.90;;;;;;4766400;30;20066;-90
2022/09/10 02:09:06;;;;;;;10.95;7.03;;;20.00;99.90;;;;;;4759246;30;20043;-89
2022/09/10 02:12:03;;;;;;;13.02;8.10;;;20.00;99.90;;;;;;4756616;30;20055;-90
2022/09/10 02:14:57;;;;;;;13.77;7.90;;;20.00;99.90;;;;;;4762476;30;20056;-90
2022/09/10 02:17:46;;;;;;;15.07;8.45;;;20.00;99.90;;;;;;4764183;30;20513;-90
2022/09/10 02:20:15;;;;;;;16.45;8.75;;;20.00;99.90;;;;;;4769763;30;20086;-89
2022/09/10 02:22:49;;;;;;;15.48;9.30;;;20.00;99.90;;;;;;4772153;30;20043;-90
2022/09/10 02:25:17;;;;;;;13.93;8.63;;;20.00;99.90;;;;;;4755502;30;20055;-90
2022/09/10 02:27:45;;;;;;;15.85;8.85;;;20.00;99.90;;;;;;4771365;30;20141;-90
2022/09/10 02:30:12;;;;;;;15.52;8.85;;;20.00;99.90;;;;;;4772246;30;20047;-90
2022/09/10 02:32:41;;;;;;;13.63;8.35;;;20.00;99.90;;;;;;4770514;30;20052;-90
2022/09/10 02:35:12;;;;;;;13.82;8.35;;;20.00;99.90;;;;;;4755845;30;20146;-90
2022/09/10 02:37:41;;;;;;;16.05;8.93;;;20.00;99.90;;;;;;4752808;30;20501;-90
2022/09/10 02:40:10;;;;;;;13.82;8.13;;;19.90;99.90;;;;;;4773327;30;20608;-90
2022/09/10 02:42:38;;;;;;;11.38;7.93;;;19.90;99.90;;;;;;4772673;30;20051;-90
2022/09/10 02:45:07;;;;;;;12.35;7.53;;;19.90;99.90;;;;;;4758374;30;20040;-90
2022/09/10 02:47:35;;;;;;;11.40;7.18;;;19.80;99.90;;;;;;4753589;30;20059;-90
2022/09/10 02:50:03;;;;;;;11.75;6.72;;;19.80;99.90;;;;;;4755321;30;20066;-90
2022/09/10 02:52:33;;;;;;;14.38;7.47;;;19.80;99.90;;;;;;4779647;30;20846;-91
2022/09/10 02:55:00;;;;;;;10.65;6.68;;;19.80;99.90;;;;;;4766259;30;20109;-90
2022/09/10 02:57:28;;;;;;;12.00;6.93;;;19.80;99.90;;;;;;4771418;30;20149;-90
2022/09/10 02:59:56;;;;;;;10.68;6.53;;;19.80;99.90;;;;;;4757100;30;20056;-90
2022/09/10 03:02:23;;;;;;;10.65;6.75;;;19.70;99.90;;;;;;4758108;30;20481;-90
2022/09/10 03:04:51;;;;;;;11.85;6.55;;;19.70;99.90;;;;;;4756638;30;20500;-91
2022/09/10 03:07:19;;;;;;;12.27;6.57;;;19.70;99.90;;;;;;4757112;30;20051;-90
2022/09/10 03:09:46;;;;;;;11.60;6.65;;;19.60;99.90;;;;;;4772164;30;20063;-92
2022/09/10 03:12:15;;;;;;;10.70;5.88;;;19.60;99.90;;;;;;4768332;30;20113;-91
2022/09/10 03:14:42;;;;;;;11.15;5.63;;;19.60;99.90;;;;;;4771065;30;20059;-90
2022/09/10 03:17:10;;;;;;;10.57;6.20;;;19.60;99.90;;;;;;4772198;30;20176;-91
2022/09/10 03:19:38;;;;;;;9.70;5.07;;;19.60;99.90;;;;;;4772599;30;20062;-91
2022/09/10 03:22:06;;;;;;;7.15;5.05;;;19.50;99.90;;;;;;4758289;30;20051;-91
2022/09/10 03:24:35;;;;;;;9.77;4.85;;;19.40;99.90;;;;;;4757128;30;20090;-91
2022/09/10 03:27:05;;;;;;;8.00;4.40;;;19.40;99.90;;;;;;4771753;30;20062;-91
2022/09/10 03:29:35;;;;;;;7.03;4.30;;;19.40;99.90;;;;;;4753399;30;20047;-92
2022/09/10 03:32:02;;;;;;;8.05;4.05;;;19.40;99.90;;;;;;4758242;30;20047;-93
2022/09/10 03:34:30;;;;;;;6.72;3.60;;;19.30;99.90;;;;;;4772758;30;20079;-94
2022/09/10 03:36:58;;;;;;;6.72;4.25;;;19.30;99.90;;;;;;4733050;30;20075;-95
2022/09/10 03:39:26;;;;;;;8.50;3.78;;;19.30;99.90;;;;;;4718144;30;20058;-92
2022/09/10 03:41:54;;;;;;;4.55;3.17;;;19.30;99.90;;;;;;4704491;30;20053;-94
2022/09/10 03:44:21;;;;;;;4.93;3.20;;;19.10;99.90;;;;;;4716772;30;20064;-94
2022/09/10 03:46:50;;;;;;;6.00;2.92;;;19.20;99.90;;;;;;4704627;30;20142;-94
2022/09/10 03:49:17;;;;;;;7.47;3.25;;;19.20;99.90;;;;;;4718361;30;20110;-93
2022/09/10 03:51:46;;;;;;;4.10;2.72;;;19.20;99.90;;;;;;4729066;30;20530;-92
2022/09/10 03:54:15;;;;;;;5.65;2.28;;;19.00;99.90;;;;;;4704683;30;20055;-95
2022/09/10 03:56:43;;;;;;;3.60;2.22;;;18.90;99.90;;;;;;4734364;30;20113;-95
2022/09/10 03:59:12;;;;;;;4.28;1.95;;;18.80;99.90;;;;;;4705049;30;20083;-94
2022/09/10 04:01:40;;;;;;;4.72;2.15;;;18.90;99.90;;;;;;4700797;30;20562;-95
2022/09/10 04:04:09;;;;;;;3.75;2.15;;;18.90;99.90;;;;;;4721690;30;20140;-93
2022/09/10 04:06:37;;;;;;;3.70;2.10;;;18.90;99.90;;;;;;4689956;30;20547;-94
2022/09/10 04:09:05;;;;;;;3.65;1.77;;;18.90;99.90;;;;;;4723647;30;20136;-91
2022/09/10 04:11:33;;;;;;;4.28;1.67;;;18.90;99.90;;;;;;4727574;30;20053;-92
2022/09/10 04:14:02;;;;;;;5.22;1.67;;;18.90;99.90;;;;;;4738071;30;20051;-95
2022/09/10 04:16:31;;;;;;;4.57;1.85;;;19.00;99.90;;;;;;4755624;30;20066;-93
2022/09/10 04:18:59;;;;;;;3.38;1.45;;;18.90;99.90;;;;;;4763174;30;20069;-94
2022/09/10 04:21:27;;;;;;;1.75;0.93;;;18.80;99.90;;;;;;4767359;30;20082;-95
2022/09/10 04:23:58;;;;;;;2.65;1.40;;;18.90;99.90;;;;;;4761026;30;20051;-94
2022/09/10 04:26:26;;;;;;;4.32;1.45;;;18.90;99.90;;;;;;4748582;30;20059;-93
2022/09/10 04:28:54;;;;;;;2.70;1.33;;;18.80;99.90;;;;;;4784315;30;20047;-93
2022/09/10 04:31:21;;;;;;;2.42;1.17;;;18.80;99.90;;;;;;4763712;30;20062;-94
2022/09/10 04:33:52;;;;;;;4.65;1.23;;;18.80;99.90;;;;;;4781522;30;20047;-94
2022/09/10 04:36:25;;;;;;;2.58;1.20;;;18.90;99.90;;;;;;4767185;30;20083;-94
2022/09/10 04:38:53;;;;;;;3.65;1.35;;;18.80;99.90;;;;;;4774777;29;20059;-95
2022/09/10 04:41:21;;;;;;;3.22;1.17;;;18.80;99.90;;;;;;4769978;30;20063;-94
2022/09/10 04:43:48;;;;;;;3.63;1.13;;;18.80;99.90;;;;;;4772955;30;20146;-94
2022/09/10 04:46:16;;;;;;;2.83;1.05;;;18.80;99.90;;;;;;4773217;30;20039;-94
2022/09/10 04:48:45;;;;;;;3.08;1.20;;;18.80;99.90;;;;;;4778341;30;20080;-93
2022/09/10 04:51:17;;;;;;;1.83;1.08;;;18.80;99.90;;;;;;4798692;29;20054;-94
2022/09/10 04:53:46;;;;;;;3.53;1.05;;;18.80;99.90;;;;;;4775742;30;20063;-94
2022/09/10 04:56:16;;;;;;;2.15;1.17;;;18.70;99.90;;;;;;4797944;29;20132;-94
2022/09/10 04:58:45;;;;;;;1.90;1.02;;;18.70;99.90;;;;;;4758308;30;20051;-94
2022/09/10 05:01:13;;;;;;;2.40;1.00;;;18.70;99.90;;;;;;4756629;30;20073;-94
2022/09/10 05:03:43;;;;;;;2.88;0.95;;;18.70;99.90;;;;;;4789444;29;20064;-96
2022/09/10 05:06:11;;;;;;;4.63;1.00;;;18.70;99.90;;;;;;4778417;30;20048;-95
2022/09/10 05:08:39;;;;;;;2.08;0.88;;;18.70;99.90;;;;;;4784455;30;20055;-96
2022/09/10 05:11:10;;;;;;;1.38;0.60;;;18.60;99.90;;;;;;4792524;30;20076;-96
2022/09/10 05:13:38;;;;;;;3.42;0.88;;;18.60;99.90;;;;;;4774397;30;20510;-95
2022/09/10 05:16:06;;;;;;;1.55;0.52;;;18.60;99.90;;;;;;4784378;29;20043;-96
2022/09/10 05:18:34;;;;;;;1.85;1.00;;;18.60;99.90;;;;;;4792648;29;20058;-95
2022/09/10 05:21:05;;;;;;;2.40;0.80;;;18.60;99.90;;;;;;4791779;29;20396;-94
2022/09/10 05:23:40;;;;;;;1.83;0.70;;;18.70;99.90;;;;;;4777700;29;20086;-95
2022/09/10 05:26:09;;;;;;;1.85;1.05;;;18.70;99.90;;;;;;4752658;30;20048;-95
2022/09/10 05:28:36;;;;;;;2.45;0.80;;;18.70;99.90;;;;;;4762515;30;20055;-96
2022/09/10 05:31:08;;;;;;;2.40;0.70;;;18.70;99.90;;;;;;4760577;29;20043;-96
2022/09/10 05:33:39;;;;;;;1.42;0.85;;;18.70;99.90;;;;;;4748094;30;20052;-96
2022/09/10 05:36:21;;;;;;;1.90;0.70;;;18.80;99.90;;;;;;4773628;30;20126;-96
2022/09/10 05:38:50;;;;;;;2.00;0.82;;;18.80;99.90;;;;;;4765574;30;20059;-96
2022/09/10 05:41:20;;;;;;;1.80;1.00;;;18.80;99.90;;;;;;4758562;30;20498;-96
2022/09/10 05:43:52;;;;;;;2.95;0.68;;;18.90;99.90;;;;;;4759826;30;20090;-96
2022/09/10 05:46:21;;;;;;;2.72;1.10;;;18.90;99.90;;;;;;4735492;30;20061;-96
2022/09/10 05:48:53;;;;;;;2.92;0.63;;;18.90;99.90;;;;;;4711130;30;20056;-96
2022/09/10 05:51:21;;;;;;;2.60;0.57;;;18.90;99.90;;;;;;4728545;30;20099;-95
2022/09/10 05:53:49;;;;;;;1.45;0.60;;;18.90;99.90;;;;;;4722911;30;20109;-96
2022/09/10 05:56:19;;;;;;;1.65;0.75;;;18.90;99.90;;;;;;4740028;30;20090;-96
2022/09/10 05:58:48;;;;;;;1.13;0.38;;;18.90;99.90;;;;;;4761889;30;20136;-96
2022/09/10 06:01:30;;;;;;;1.60;0.68;;;18.90;99.90;;;;;;4769678;30;20058;-96
2022/09/10 06:04:51;;;;;;;2.30;0.40;;;18.90;99.90;;;;;;4766469;30;20060;-96
2022/09/10 07:07:11;;;;;;;1.80;0.35;;;19.70;99.90;;;;;;4974816;24;20063;-96
2022/09/10 07:19:16;;;;;;;1.58;0.30;;;19.50;99.90;;;;;;4790729;29;19910;-96
2022/09/10 07:22:29;;;;;;;3.08;0.40;;;19.30;99.90;;;;;;4736881;30;20542;-96
2022/09/10 07:25:00;;;;;;;1.27;0.35;;;19.20;99.90;;;;;;4735385;30;20052;-96
2022/09/10 07:27:39;;;;;;;2.20;0.22;;;19.20;99.90;;;;;;4763664;24;20063;-96
2022/09/10 07:30:07;;;;;;;1.88;0.40;;;19.20;99.90;;;;;;4767759;29;20036;-96
2022/09/10 07:32:35;;;;;;;2.92;1.15;;;19.20;99.90;;;;;;4766329;30;20188;-96
2022/09/10 07:35:11;;;;;;;1.17;0.43;;;19.30;99.90;;;;;;4756850;30;20541;-96
2022/09/10 07:37:57;;;;;;;2.47;0.28;;;19.30;99.90;;;;;;4773716;30;20038;-96
2022/09/10 07:43:54;;;;;;;2.05;0.40;;;19.20;99.90;;;;;;4799723;29;20792;-96
2022/09/10 07:46:31;;;;;;;2.58;0.47;;;19.30;99.90;;;;;;4785802;30;20138;-96
2022/09/10 07:49:19;;;;;;;1.77;0.38;;;19.30;99.90;;;;;;4772688;30;20497;-96
2022/09/10 07:52:06;;;;;;;2.35;0.57;;;19.30;99.90;;;;;;4726438;30;20070;-96
2022/09/10 07:54:42;;;;;;;3.28;1.13;;;19.30;99.90;;;;;;4711573;30;20048;-96
2022/09/10 07:57:09;;;;;;;1.70;0.80;;;19.20;99.90;;;;;;4728340;30;20053;-96
2022/09/10 07:59:54;;;;;;;1.73;0.90;;;19.20;99.90;;;;;;4914097;24;20147;-96
2022/09/10 08:02:31;;;;;;;4.18;1.05;;;19.10;99.90;;;;;;4716096;30;20068;-96
2022/09/10 08:05:03;;;;;;;2.70;1.05;;;19.00;99.90;;;;;;4700572;30;20523;-92
2022/09/10 08:07:32;;;;;;;1.33;0.85;;;19.10;99.90;;;;;;4693552;30;20134;-96
2022/09/10 08:10:00;;;;;;;2.13;1.13;;;19.10;99.90;;;;;;4698522;30;20502;-91
2022/09/10 08:12:27;;;;;;;2.72;0.77;;;19.00;99.90;;;;;;4708164;30;20125;-92
2022/09/10 08:14:56;;;;;;;3.38;1.10;;;19.00;99.90;;;;;;4696253;30;20052;-91
2022/09/10 08:17:27;;;;;;;3.10;0.85;;;19.00;99.90;;;;;;4682567;30;20057;-91
2022/09/10 08:20:00;;;;;;;2.47;1.05;;;19.00;99.90;;;;;;4715786;30;20080;-96
2022/09/10 08:22:27;;;;;;;3.13;1.10;;;19.00;99.90;;;;;;4700273;30;20053;-92
2022/09/10 08:24:56;;;;;;;2.63;0.90;;;19.00;99.90;;;;;;4709860;30;20049;-92
2022/09/10 08:27:28;;;;;;;5.05;1.17;;;19.00;99.90;;;;;;4686403;30;20058;-91
2022/09/10 08:29:56;;;;;;;1.65;1.27;;;19.20;99.90;;;;;;4708466;30;20132;-89
2022/09/10 08:32:24;;;;;;;5.25;1.17;;;19.20;99.90;;;;;;4713445;30;20071;-90
2022/09/10 08:34:52;;;;;;;3.63;1.63;;;19.30;99.90;;;;;;4701491;30;20653;-91
2022/09/10 08:37:20;;;;;;;3.95;1.73;;;19.50;99.90;;;;;;4698899;30;20467;-91
2022/09/10 08:39:49;;;;;;;2.50;1.40;;;19.60;99.90;;;;;;4701176;30;20076;-96
2022/09/10 08:42:31;;;;;;;2.47;1.50;;;19.70;99.90;;;;;;4708868;30;20049;-94
2022/09/10 08:45:22;;;;;;;3.45;1.17;;;19.70;99.90;;;;;;4712877;30;20053;-93
2022/09/10 08:48:16;;;;;;;3.22;1.33;;;19.80;99.90;;;;;;4698624;30;20049;-92
2022/09/10 08:50:58;;;;;;;2.25;0.95;;;19.90;99.90;;;;;;4705542;30;20057;-93
2022/09/10 08:53:51;;;;;;;2.03;0.75;;;20.10;99.90;;;;;;4698825;30;20084;-96
2022/09/10 08:56:28;;;;;;;1.83;0.82;;;20.10;99.90;;;;;;4709854;30;20573;-96
2022/09/10 08:59:04;;;;;;;4.15;1.77;;;20.00;99.90;;;;;;4684509;30;20140;-96
2022/09/10 09:02:07;;;;;;;3.25;0.88;;;20.00;99.90;;;;;;4724166;30;20116;-97
2022/09/10 09:05:21;;;;;;;1.42;0.90;;;20.00;99.90;;;;;;4683550;30;20149;-97
2022/09/10 09:07:54;;;;;;;4.10;1.55;;;20.10;99.90;;;;;;4781365;24;20063;-96
2022/09/10 09:10:55;;;;;;;3.38;1.50;;;20.10;99.90;;;;;;4864839;24;20057;-96
2022/09/10 09:13:30;;;;;;;2.45;1.27;;;20.20;99.90;;;;;;4795662;29;20043;-95
2022/09/10 09:22:37;;;;;;;2.58;1.25;;;20.60;99.90;;;;;;4804019;24;20056;-96
2022/09/10 09:25:13;;;;;;;2.65;0.93;;;20.90;99.90;;;;;;4773110;30;20052;-96
2022/09/10 09:28:31;;;;;;;2.05;0.80;;;21.00;99.90;;;;;;4834318;29;20059;-97
2022/09/10 09:31:27;;;;;;;2.28;0.68;;;21.20;99.90;;;;;;4803899;29;20089;-96
2022/09/10 09:34:36;;;;;;;1.75;0.57;;;21.10;99.90;;;;;;5356104;24;20046;31
2022/09/10 09:37:32;;;;;;;1.85;0.75;;;21.00;99.90;;;;;;4934022;24;20074;-96
2022/09/10 09:40:43;;;;;;;1.25;0.70;;;21.00;99.90;;;;;;4831154;24;20054;-93
2022/09/10 09:46:16;;;;;;;5.35;0.50;;;21.20;99.90;;;;;;4798689;29;20070;-96
2022/09/10 09:48:52;;;;;;;1.30;0.50;;;21.50;98.20;;;;;;4787873;29;20451;-96
2022/09/10 09:51:22;;;;;;;1.52;0.30;;;21.60;98.10;;;;;;4777368;29;20074;-96
2022/09/10 09:53:55;;;;;;;3.10;0.35;;;21.60;96.70;;;;;;4770878;30;20055;-96
2022/09/10 09:56:50;;;;;;;0.60;0.30;;;21.60;96.10;;;;;;4777538;29;20050;-92
2022/09/10 09:59:26;;;;;;;0.40;0.20;;;21.60;93.80;;;;;;4778853;29;20039;-94
2022/09/10 10:02:16;;;;;;;0.68;0.20;;;21.60;91.70;;;;;;4767672;29;20058;-95
2022/09/10 10:05:22;;;;;;;0.90;0.20;;;21.70;90.60;;;;;;4774091;29;20047;-94
2022/09/10 10:07:50;;;;;;;0.60;0.20;;;21.60;90.20;;;;;;4764331;29;20059;-96
2022/09/10 10:10:25;;;;;;;2.05;0.10;;;21.80;91.80;;;;;;4762283;29;20071;-93
2022/09/10 10:12:54;;;;;;;1.55;0.20;;;21.80;89.90;;;;;;4767533;29;20071;-95
2022/09/10 10:15:40;;;;;;;2.95;0.50;;;22.00;91.00;;;;;;4764768;29;20051;-95
2022/09/10 10:18:32;;;;;;;1.88;0.20;;;22.10;91.30;;;;;;4771631;29;20043;-93
2022/09/10 10:21:09;;;;;;;0.43;0.10;;;22.10;89.30;;;;;;4789130;29;20062;-92
2022/09/10 10:23:39;;;;;;;0.70;0.20;;;22.10;89.40;;;;;;4774899;29;20062;-92
2022/09/10 10:26:20;;;;;;;1.25;0.20;;;22.10;87.70;;;;;;4786149;29;20042;-91
2022/09/10 10:29:00;;;;;;;0.20;0.10;;;22.00;87.20;;;;;;4773254;29;20051;-94
2022/09/10 10:31:45;;;;;;;1.80;0.10;;;22.10;88.10;;;;;;4767909;29;20059;-93
2022/09/10 10:34:55;;;;;;;0.35;0.10;;;22.10;86.40;;;;;;4766320;29;20497;-91
2022/09/10 10:37:26;;;;;;;0.60;0.05;;;22.20;85.30;;;;;;4735284;30;20071;-95
2022/09/10 10:40:25;;;;;;;1.35;0.28;;;22.20;83.90;;;;;;4779769;29;20055;-94
2022/09/10 10:43:05;;;;;;;1.08;0.20;;;22.20;83.80;;;;;;4770928;29;20047;-96
2022/09/10 10:45:39;;;;;;;1.33;0.40;;;22.20;82.40;;;;;;4767117;29;20513;-91
2022/09/10 10:48:10;;;;;;;0.25;0.10;;;22.10;83.90;;;;;;4771380;29;20055;-92
2022/09/10 10:50:56;;;;;;;0.73;0.13;;;22.10;83.20;;;;;;4765541;30;20059;-96
2022/09/10 10:53:42;;;;;;;1.50;0.10;;;22.00;83.30;;;;;;4766847;30;20059;-96
2022/09/10 10:56:19;;;;;;;0.50;0.20;;;22.00;83.00;;;;;;4773788;29;20062;-96
2022/09/10 10:59:09;;;;;;;1.23;0.10;;;22.00;85.40;;;;;;4774350;29;20622;-96
2022/09/10 11:01:47;;;;;;;0.47;0.10;;;22.10;84.30;;;;;;4770408;29;20112;-94
2022/09/10 11:04:33;;;;;;;0.57;0.20;;;22.00;83.80;;;;;;4765454;29;20498;-91
2022/09/10 11:07:08;;;;;;;0.25;0.05;;;22.10;82.90;;;;;;4789473;29;20131;-93
2022/09/10 11:10:10;;;;;;;0.43;0.10;;;22.40;82.30;;;;;;4773493;29;20055;-93
2022/09/10 11:12:52;;;;;;;0.80;0.20;;;22.50;80.20;;;;;;4738684;29;20519;-94
2022/09/10 11:15:36;;;;;;;3.13;0.60;;;22.50;79.70;;;;;;4766909;30;20055;-94
2022/09/10 11:18:34;;;;;;;0.30;0.10;;;22.50;77.80;;;;;;4768556;29;20066;-95
2022/09/10 11:21:28;;;;;;;2.05;0.40;;;22.40;77.50;;;;;;4768008;29;20079;-96
2022/09/10 11:23:56;;;;;;;0.75;0.10;;;22.40;78.90;;;;;;4785460;29;20150;-88
2022/09/10 11:26:40;;;;;;;0.90;0.28;;;22.40;79.70;;;;;;4775668;29;20057;-92
2022/09/10 11:29:35;;;;;;;1.05;0.22;;;22.60;75.90;;;;;;4772869;29;20058;-93
2022/09/10 11:32:17;;;;;;;0.40;0.10;;;22.80;76.10;;;;;;4778456;30;20064;-93
2022/09/10 11:35:13;;;;;;;2.78;0.50;;;23.00;74.30;;;;;;4774876;29;20474;-96
2022/09/10 11:38:11;;;;;;;0.40;0.10;;;22.80;72.10;;;;;;4770177;29;20062;-92
2022/09/10 11:40:57;;;;;;;0.70;0.00;;;22.70;72.50;;;;;;4770530;29;20054;-92
2022/09/10 11:43:36;;;;;;;0.85;0.28;;;22.50;70.90;;;;;;4772343;30;20524;-90
2022/09/10 11:46:10;;;;;;;3.50;0.35;;;22.40;68.90;;;;;;4769450;29;20059;-90
2022/09/10 11:48:45;;;;;;;2.00;0.52;;;22.30;70.00;;;;;;4769971;29;20090;-92
2022/09/10 11:51:37;;;;;;;0.73;0.10;;;22.30;70.50;;;;;;4783778;29;20047;-93
2022/09/10 11:54:17;;;;;;;4.35;2.05;;;22.30;71.50;;;;;;4771144;29;20140;-90
2022/09/10 11:57:00;;;;;;;2.78;0.52;;;22.30;70.90;;;;;;4779168;29;20055;-90
2022/09/10 11:59:37;;;;;;;11.63;5.60;;;22.40;70.60;;;;;;4769820;30;20047;-89
2022/09/10 12:02:20;;;;;;;0.13;0.00;;;22.40;70.00;;;;;;4763261;29;20501;-93
2022/09/10 12:04:59;;;;;;;;;;;22.50;69.90;;;;;;4764982;29;20051;-90
2022/09/10 12:07:33;;;;;;;0.70;0.00;;;22.60;69.50;;;;;;4765675;29;21313;-92
2022/09/10 12:10:20;;;;;;;0.10;0.00;;;22.60;70.00;;;;;;4775260;30;20062;-95
2022/09/10 12:12:49;;;;;;;0.30;0.05;;;22.60;71.00;;;;;;4766718;30;20044;-92
2022/09/10 12:15:26;;;;;;;0.20;0.10;;;22.60;69.60;;;;;;4781209;30;20082;-91
2022/09/10 12:17:58;;;;;;;0.20;0.00;;;22.50;69.70;;;;;;4773562;29;20063;-88
2022/09/10 12:20:53;;;;;;;1.85;0.00;;;22.40;71.10;;;;;;4785569;29;20063;-91
2022/09/10 12:23:43;;;;;;;1.05;0.00;;;22.40;70.60;;;;;;4755993;29;20062;-91
2022/09/10 12:26:18;;;;;;;0.90;0.00;;;22.60;70.20;;;;;;4762743;29;20055;-92
2022/09/10 12:28:52;;;;;;;0.30;0.10;;;22.90;70.60;;;;;;4772726;29;20051;-91
2022/09/10 12:31:21;;;;;;;1.65;0.10;;;23.10;69.20;;;;;;4790819;29;20069;-90
2022/09/10 12:33:49;;;;;;;1.80;0.08;;;23.30;68.10;;;;;;4772637;29;20051;-93
2022/09/10 12:36:26;;;;;;;1.05;0.10;;;23.20;66.90;;;;;;4772176;29;20124;-94
2022/09/10 12:39:15;;;;;;;1.33;0.10;;;23.20;68.30;;;;;;4770422;29;20059;-91
2022/09/10 12:41:42;;;;;;;1.48;0.10;;;23.10;68.80;;;;;;4771105;29;20055;-94
2022/09/10 12:44:33;;;;;;;0.65;0.03;;;23.30;68.70;;;;;;4778989;29;20853;-90
2022/09/10 12:47:12;;;;;;;0.38;0.00;;;23.40;65.30;;;;;;4781641;30;20195;-91
2022/09/10 12:49:56;;;;;;;1.58;0.00;;;23.30;64.70;;;;;;4780702;29;20637;-92
2022/09/10 12:52:41;;;;;;;0.90;0.10;;;23.40;65.00;;;;;;4772034;29;20055;-96
2022/09/10 12:55:34;;;;;;;0.20;0.00;;;23.40;64.80;;;;;;4769936;29;20501;-95
2022/09/10 12:58:07;;;;;;;3.13;0.10;;;23.40;65.30;;;;;;4768211;29;20055;-96
2022/09/10 13:00:47;;;;;;;0.75;0.08;;;23.20;65.70;;;;;;4790165;29;20058;-87
2022/09/10 13:03:17;;;;;;;0.52;0.17;;;23.10;65.50;;;;;;4785375;29;20108;-94
2022/09/10 13:05:44;;;;;;;0.20;0.00;;;23.20;65.10;;;;;;4773009;30;20052;-93
2022/09/10 13:08:37;;;;;;;1.65;0.20;;;23.40;64.10;;;;;;4771561;30;20066;-93
2022/09/10 13:11:21;;;;;;;1.75;0.68;;;23.40;64.20;;;;;;4761966;29;20043;-93
2022/09/10 13:13:56;;;;;;;1.30;0.10;;;23.40;65.60;;;;;;4772350;29;20050;-94
2022/09/10 13:16:26;;;;;;;1.35;0.10;;;23.40;65.00;;;;;;4769126;29;20055;-94
2022/09/10 13:19:12;;;;;;;0.20;0.10;;;23.40;64.50;;;;;;4771747;29;20050;-91
2022/09/10 13:21:40;;;;;;;0.60;0.17;;;23.50;65.30;;;;;;4767821;29;20078;-94
2022/09/10 13:24:32;;;;;;;1.17;0.00;;;23.60;64.20;;;;;;4784187;29;20114;-96
2022/09/10 13:27:34;;;;;;;0.60;0.10;;;23.40;64.20;;;;;;4788133;29;20130;-96
2022/09/10 13:30:15;;;;;;;0.95;0.10;;;23.40;65.60;;;;;;4777155;29;20047;-92
2022/09/10 13:32:54;;;;;;;0.35;0.10;;;23.30;66.00;;;;;;4771912;30;20152;-94
2022/09/10 13:35:46;;;;;;;0.55;0.10;;;23.40;65.40;;;;;;4776449;29;20513;-91
2022/09/10 13:38:52;;;;;;;0.28;0.10;;;23.40;66.40;;;;;;4777812;29;20476;-90
2022/09/10 13:41:46;;;;;;;2.63;0.10;;;23.40;65.00;;;;;;4762104;30;20043;-93
2022/09/10 13:44:46;;;;;;;0.47;0.10;;;23.40;63.50;;;;;;4734852;29;20059;-89
2022/09/10 13:47:38;;;;;;;0.47;0.10;;;23.40;65.70;;;;;;4772020;29;20051;-92
2022/09/10 13:50:12;;;;;;;0.60;0.07;;;23.30;65.20;;;;;;4741661;29;20066;-92
2022/09/10 13:52:44;;;;;;;1.08;0.08;;;23.30;66.40;;;;;;4777106;29;20051;-89
2022/09/10 13:55:27;;;;;;;1.10;0.10;;;23.30;66.30;;;;;;4786013;29;20059;-91
2022/09/10 13:57:59;;;;;;;0.30;0.20;;;23.40;66.00;;;;;;4742260;30;20052;-94
2022/09/10 14:00:31;;;;;;;;;;;23.30;65.60;;;;;;4721033;30;20180;-90
2022/09/10 14:02:59;;;;;;;0.82;0.10;;;23.30;66.00;;;;;;4741418;30;19933;-92
2022/09/10 14:05:38;;;;;;;0.35;0.10;;;23.30;66.50;;;;;;4719735;30;20053;-94
2022/09/10 14:08:12;;;;;;;1.38;0.20;;;23.30;66.80;;;;;;4728156;30;20479;-95
2022/09/10 14:10:54;;;;;;;0.68;0.10;;;23.30;66.00;;;;;;4737310;30;20498;-91
2022/09/10 14:13:37;;;;;;;1.50;0.10;;;23.30;65.10;;;;;;4735749;30;20052;-93
2022/09/10 14:16:05;;;;;;;;;;;23.20;65.90;;;;;;4717408;30;20052;-92
2022/09/10 14:18:48;;;;;;;1.02;0.10;;;23.20;64.80;;;;;;4742017;30;19927;-92
2022/09/10 14:21:18;;;;;;;0.65;0.10;;;23.10;65.90;;;;;;4733435;30;20147;-92
2022/09/10 14:23:47;;;;;;;0.30;0.00;;;23.00;65.40;;;;;;4720270;30;20060;-94
2022/09/10 14:26:25;;;;;;;0.22;0.10;;;23.00;66.10;;;;;;4731066;30;20056;-92
2022/09/10 14:28:59;;;;;;;0.75;0.10;;;23.10;65.70;;;;;;4730589;30;20147;-92
2022/09/10 14:31:29;;;;;;;2.38;0.10;;;23.20;63.60;;;;;;4733692;30;20055;-92
2022/09/10 14:33:58;;;;;;;0.20;0.10;;;23.10;64.80;;;;;;4730242;30;20059;-88
2022/09/10 14:36:28;;;;;;;1.75;0.10;;;23.00;64.70;;;;;;4764998;29;20116;-88
2022/09/10 14:39:15;;;;;;;0.95;0.10;;;23.10;64.50;;;;;;4776910;29;20058;-91
2022/09/10 14:41:43;;;;;;;0.50;0.10;;;23.00;65.70;;;;;;4774436;29;20544;-91
2022/09/10 14:44:21;;;;;;;0.80;0.10;;;22.90;66.80;;;;;;4771840;29;20160;-90
2022/09/10 14:46:59;;;;;;;1.30;0.40;;;22.90;66.30;;;;;;4765382;29;20052;-88
2022/09/10 14:49:36;;;;;;;1.55;0.10;;;23.00;64.90;;;;;;4770952;29;20150;-91
2022/09/10 14:52:06;;;;;;;0.50;0.10;;;23.00;66.10;;;;;;4773383;29;20066;-87
2022/09/10 14:54:34;;;;;;;1.48;0.25;;;23.00;65.60;;;;;;4788502;29;20054;-93
2022/09/10 14:57:08;;;;;;;1.85;0.10;;;23.00;64.10;;;;;;4765170;29;20059;-86